Time;durP1;ratioP1;P1;durP2;ratioP2;P2;SDS_P1;SDS_P2;PMS_P1;PMS_P2;Temp;Humidity;BMP_temperature;BMP_pressure;BME280_temperature;BME280_humidity;BME280_pressure;Samples;Min_cycle;Max_cycle;Signal;HPM_P1;HPM_P2
2021/10/10 00:02:23;;;;;;;15.35;7.22;;;;;;;8.84;58.07;101299.66;5133085;27;20089;-68
2021/10/10 00:04:51;;;;;;;18.85;7.60;;;;;;;8.71;58.47;101306.34;5132458;27;20514;-68
2021/10/10 00:07:20;;;;;;;17.05;6.78;;;;;;;8.68;58.96;101298.44;5132725;27;20040;-68
2021/10/10 00:09:49;;;;;;;14.93;7.47;;;;;;;8.64;59.56;101296.84;5132435;27;20141;-68
2021/10/10 00:12:18;;;;;;;18.55;7.85;;;;;;;8.65;60.01;101294.13;5132777;27;20047;-68
2021/10/10 00:14:46;;;;;;;15.07;7.43;;;;;;;8.64;60.42;101292.38;5132594;27;20500;-68
2021/10/10 00:17:15;;;;;;;16.67;7.60;;;;;;;8.60;59.58;101294.28;5133194;27;20074;-68
2021/10/10 00:19:43;;;;;;;16.20;7.20;;;;;;;8.64;61.19;101286.19;5132400;28;20064;-68
2021/10/10 00:22:11;;;;;;;19.05;7.63;;;;;;;8.65;61.64;101294.13;5132559;27;20051;-67
2021/10/10 00:24:40;;;;;;;18.67;8.45;;;;;;;8.59;61.21;101297.88;5132508;27;20042;-68
2021/10/10 00:27:10;;;;;;;15.80;7.05;;;;;;;8.57;62.09;101289.06;5132683;28;20433;-68
2021/10/10 00:29:38;;;;;;;14.25;7.75;;;;;;;8.48;62.37;101294.69;5132498;27;20042;-68
2021/10/10 00:32:07;;;;;;;16.33;7.78;;;;;;;8.53;63.24;101295.44;5132703;27;20059;-68
2021/10/10 00:34:35;;;;;;;14.60;7.28;;;;;;;8.49;63.23;101296.47;5136197;27;20043;-68
2021/10/10 00:37:03;;;;;;;15.25;7.88;;;;;;;8.29;66.22;101296.22;5136548;27;20047;-68
2021/10/10 00:39:32;;;;;;;14.55;7.53;;;;;;;8.23;65.90;101301.78;5136262;27;20074;-68
2021/10/10 00:42:00;;;;;;;16.83;7.65;;;;;;;8.21;67.38;101296.50;5137112;27;20046;-68
2021/10/10 00:44:30;;;;;;;16.55;7.78;;;;;;;8.19;68.09;101292.16;5136608;27;20133;-68
2021/10/10 00:46:59;;;;;;;18.77;8.55;;;;;;;8.10;71.07;101289.78;5136498;27;20137;-68
2021/10/10 00:49:27;;;;;;;18.88;8.35;;;;;;;7.94;71.31;101285.00;5136671;27;20071;-68
2021/10/10 00:51:58;;;;;;;17.95;8.82;;;;;;;8.02;73.71;101282.97;5136424;27;20042;-68
2021/10/10 00:54:28;;;;;;;17.13;7.63;;;;;;;8.00;74.20;101282.13;5136221;27;20066;-68
2021/10/10 00:56:58;;;;;;;21.52;8.10;;;;;;;7.91;77.14;101273.59;5135539;27;20229;-68
2021/10/10 00:59:28;;;;;;;16.98;8.75;;;;;;;7.92;75.31;101273.56;5136110;27;20062;-68
2021/10/10 01:02:00;;;;;;;15.77;7.72;;;;;;;7.93;77.51;101266.47;5136346;27;20457;-68
2021/10/10 01:04:28;;;;;;;19.35;8.40;;;;;;;7.76;81.22;101269.66;5136358;27;20154;-68
2021/10/10 01:06:57;;;;;;;17.45;9.27;;;;;;;7.83;84.12;101263.25;5136332;27;20043;-68
2021/10/10 01:09:25;;;;;;;15.93;8.05;;;;;;;7.88;84.06;101258.63;5135971;27;20119;-68
2021/10/10 01:11:54;;;;;;;19.20;8.85;;;;;;;7.81;85.34;101257.09;5135670;27;20039;-68
2021/10/10 01:14:22;;;;;;;23.13;8.05;;;;;;;7.93;83.92;101259.38;5135896;27;20043;-68
2021/10/10 01:16:50;;;;;;;17.83;8.55;;;;;;;7.74;87.49;101260.88;5134420;27;20137;-68
2021/10/10 01:19:20;;;;;;;17.13;8.23;;;;;;;7.75;87.94;101258.19;5136052;27;20073;-67
2021/10/10 01:21:50;;;;;;;16.45;8.15;;;;;;;7.60;92.32;101257.78;5135764;27;20039;-68
2021/10/10 01:24:18;;;;;;;18.13;8.80;;;;;;;7.74;91.14;101251.13;5135716;27;20043;-68
2021/10/10 01:26:46;;;;;;;19.30;8.38;;;;;;;7.57;92.72;101265.88;5135394;27;20053;-68
2021/10/10 01:29:15;;;;;;;21.38;9.00;;;;;;;7.57;93.18;101264.06;5135855;27;20043;-68
2021/10/10 01:31:43;;;;;;;15.52;8.15;;;;;;;7.49;93.72;101267.88;5134737;27;20055;-68
2021/10/10 01:34:11;;;;;;;18.33;8.75;;;;;;;7.45;94.71;101261.81;5134632;28;20035;-68
2021/10/10 01:36:40;;;;;;;18.48;8.52;;;;;;;7.45;95.55;101261.81;5133975;28;20039;-68
2021/10/10 01:39:09;;;;;;;15.90;8.23;;;;;;;7.49;94.25;101265.22;5134143;28;20062;-68
2021/10/10 01:41:38;;;;;;;16.73;8.20;;;;;;;7.39;94.87;101259.34;5134223;28;20344;-68
2021/10/10 01:44:13;;;;;;;15.90;8.50;;;;;;;7.34;94.79;101262.16;5133988;27;20489;-68
2021/10/10 01:46:42;;;;;;;16.30;8.57;;;;;;;7.44;96.33;101271.56;5133895;28;20035;-68
2021/10/10 01:49:11;;;;;;;15.38;7.88;;;;;;;7.44;94.11;101268.03;5134020;28;20407;-68
2021/10/10 01:51:39;;;;;;;16.48;8.30;;;;;;;7.29;95.06;101264.06;5133920;27;20046;-68
2021/10/10 01:54:09;;;;;;;15.93;8.05;;;;;;;7.42;92.97;101265.41;5134190;27;20061;-67
2021/10/10 01:56:37;;;;;;;15.48;8.00;;;;;;;7.43;93.15;101260.97;5133949;28;20043;-68
2021/10/10 01:59:05;;;;;;;16.83;7.95;;;;;;;7.37;94.30;101266.47;5134042;27;20092;-68
2021/10/10 02:01:33;;;;;;;19.48;9.10;;;;;;;7.25;100.00;101266.88;5132387;28;20055;-67
2021/10/10 02:04:02;;;;;;;22.70;8.77;;;;;;;7.23;100.00;101263.38;5133699;27;20043;-68
2021/10/10 02:06:30;;;;;;;20.63;9.18;;;;;;;7.22;100.00;101262.50;5133747;27;20043;-67
2021/10/10 02:08:58;;;;;;;19.17;8.65;;;;;;;7.06;100.00;101261.25;5133809;28;20486;-68
2021/10/10 02:11:28;;;;;;;17.10;8.52;;;;;;;7.09;100.00;101266.44;5133854;27;20502;-68
2021/10/10 02:13:56;;;;;;;17.52;8.70;;;;;;;7.09;100.00;101266.44;5133433;27;20047;-68
2021/10/10 02:16:25;;;;;;;18.67;8.75;;;;;;;7.19;100.00;101262.59;5133682;27;20039;-68
2021/10/10 02:18:53;;;;;;;18.42;9.13;;;;;;;7.28;100.00;101262.31;5133419;27;20415;-68
2021/10/10 02:21:22;;;;;;;16.58;8.93;;;;;;;6.97;100.00;101259.72;5133430;28;20089;-68
2021/10/10 02:23:50;;;;;;;20.25;8.98;;;;;;;7.23;100.00;101258.94;5133462;27;20071;-68
2021/10/10 02:26:18;;;;;;;15.05;8.07;;;;;;;7.20;100.00;101256.38;5133637;28;20039;-68
2021/10/10 02:28:48;;;;;;;14.65;8.57;;;;;;;7.08;100.00;101260.28;5133368;27;20043;-68
2021/10/10 02:31:17;;;;;;;14.73;8.18;;;;;;;7.20;100.00;101263.47;5093797;27;1110789;-68
2021/10/10 02:33:45;;;;;;;21.52;8.77;;;;;;;7.23;100.00;101264.22;5133345;27;20062;-68
2021/10/10 02:36:13;;;;;;;14.57;8.07;;;;;;;7.31;100.00;101256.91;5134431;27;20044;-68
2021/10/10 02:38:41;;;;;;;20.38;9.00;;;;;;;7.16;100.00;101266.22;5134348;27;20047;-68
2021/10/10 02:41:10;;;;;;;19.67;8.57;;;;;;;7.15;100.00;101267.16;5134087;27;20065;-68
2021/10/10 02:43:38;;;;;;;15.15;8.50;;;;;;;7.12;100.00;101276.97;5134064;27;20541;-68
2021/10/10 02:46:07;;;;;;;15.43;8.05;;;;;;;7.27;100.00;101265.03;5134495;27;20043;-68
2021/10/10 02:48:36;;;;;;;15.02;7.85;;;;;;;7.23;100.00;101271.31;5134278;27;20043;-67
2021/10/10 02:51:05;;;;;;;18.65;8.00;;;;;;;7.35;100.00;101263.88;5134241;27;20045;-67
2021/10/10 02:53:33;;;;;;;17.92;8.27;;;;;;;7.28;100.00;101267.63;5134048;27;20448;-67
2021/10/10 02:56:01;;;;;;;17.13;8.82;;;;;;;7.25;100.00;101270.38;5133165;27;20049;-68
2021/10/10 02:58:30;;;;;;;17.38;8.98;;;;;;;7.13;100.00;101268.94;5134085;27;20432;-67
2021/10/10 03:00:58;;;;;;;20.08;9.48;;;;;;;7.13;100.00;101266.28;5132562;27;20488;-68
2021/10/10 03:03:29;;;;;;;17.63;9.15;;;;;;;7.20;100.00;101264.34;5134087;27;20409;-68
2021/10/10 03:05:57;;;;;;;17.73;8.98;;;;;;;7.17;100.00;101259.13;5132372;27;20480;-68
2021/10/10 03:08:25;;;;;;;17.50;9.10;;;;;;;6.92;100.00;101253.66;5133662;27;20039;-67
2021/10/10 03:10:54;;;;;;;21.80;8.35;;;;;;;6.86;100.00;101260.03;5133276;27;20059;-67
2021/10/10 03:13:22;;;;;;;16.30;9.00;;;;;;;6.96;100.00;101263.28;5133954;27;20394;-67
2021/10/10 03:15:50;;;;;;;17.10;8.50;;;;;;;6.86;100.00;101253.88;5133550;27;20564;-67
2021/10/10 03:18:18;;;;;;;17.42;9.20;;;;;;;6.72;100.00;101261.34;5132501;27;20449;-66
2021/10/10 03:20:48;;;;;;;16.30;8.75;;;;;;;6.88;100.00;101265.28;5133374;27;20198;-68
2021/10/10 03:23:16;;;;;;;25.08;9.77;;;;;;;6.66;100.00;101257.09;5133447;27;20066;-68
2021/10/10 03:25:45;;;;;;;16.80;8.75;;;;;;;6.63;100.00;101258.94;5133347;27;20051;-66
2021/10/10 03:28:13;;;;;;;18.38;9.38;;;;;;;6.68;100.00;101254.38;5133483;27;20043;-68
2021/10/10 03:30:41;;;;;;;18.10;9.43;;;;;;;6.67;100.00;101245.56;5133344;27;20062;-67
2021/10/10 03:33:10;;;;;;;17.05;9.35;;;;;;;6.71;100.00;101244.56;5133511;27;20047;-67
2021/10/10 03:35:38;;;;;;;18.63;9.82;;;;;;;6.72;100.00;101251.59;5133114;27;20095;-69
2021/10/10 03:38:07;;;;;;;21.13;9.18;;;;;;;6.68;100.00;101247.31;5131754;27;20043;-67
2021/10/10 03:40:36;;;;;;;20.77;9.13;;;;;;;6.77;100.00;101255.00;5133254;27;20130;-67
2021/10/10 03:43:04;;;;;;;19.15;9.75;;;;;;;6.73;100.00;101247.16;5132854;27;20043;-67
2021/10/10 03:45:33;;;;;;;17.50;9.60;;;;;;;6.59;100.00;101251.09;5133028;27;20047;-67
2021/10/10 03:48:01;;;;;;;19.65;9.50;;;;;;;6.73;100.00;101247.16;5132785;27;20042;-67
2021/10/10 03:50:30;;;;;;;20.25;9.65;;;;;;;6.79;100.00;101237.25;5132743;27;20048;-67
2021/10/10 03:52:58;;;;;;;18.30;9.68;;;;;;;6.50;100.00;101255.78;5132865;27;20062;-67
2021/10/10 03:55:32;;;;;;;19.88;9.35;;;;;;;6.54;100.00;101252.09;5132787;27;20058;-67
2021/10/10 03:58:01;;;;;;;16.85;9.45;;;;;;;6.63;100.00;101248.34;5132618;27;20092;-67
2021/10/10 04:00:32;;;;;;;15.98;9.50;;;;;;;6.72;100.00;101246.28;5132786;27;20067;-67
2021/10/10 04:03:03;;;;;;;21.08;9.90;;;;;;;6.66;100.00;101240.28;5132326;27;20043;-67
2021/10/10 04:05:40;;;;;;;17.98;9.77;;;;;;;6.59;100.00;101244.91;5132974;27;20437;-67
2021/10/10 04:08:09;;;;;;;17.50;10.57;;;;;;;6.56;100.00;101245.88;5132336;27;20031;-67
2021/10/10 04:10:39;;;;;;;17.00;9.73;;;;;;;6.53;100.00;101251.25;5132974;27;20080;-67
2021/10/10 04:13:08;;;;;;;17.00;9.10;;;;;;;6.55;100.00;101237.94;5132397;27;20047;-67
2021/10/10 04:15:37;;;;;;;19.30;10.30;;;;;;;6.47;100.00;101246.13;5132492;27;20039;-67
2021/10/10 04:18:05;;;;;;;22.67;9.65;;;;;;;6.59;100.00;101236.97;5132422;27;20047;-67
2021/10/10 04:20:34;;;;;;;19.77;9.43;;;;;;;6.58;100.00;101227.28;5132562;28;20043;-68
2021/10/10 04:23:03;;;;;;;22.38;9.93;;;;;;;6.26;100.00;101221.06;5132308;28;20039;-68
2021/10/10 04:25:32;;;;;;;16.15;9.20;;;;;;;6.20;100.00;101242.44;5133047;28;20039;-68
2021/10/10 04:28:01;;;;;;;19.75;10.07;;;;;;;6.38;100.00;101242.84;5132286;28;20107;-68
2021/10/10 04:30:30;;;;;;;23.58;10.05;;;;;;;6.38;100.00;101242.84;5131686;27;20047;-68
2021/10/10 04:32:58;;;;;;;17.17;9.30;;;;;;;6.41;100.00;101234.81;5132776;27;20127;-68
2021/10/10 04:35:26;;;;;;;18.70;9.75;;;;;;;6.32;100.00;101239.44;5132604;28;20043;-67
2021/10/10 04:37:55;;;;;;;18.65;9.88;;;;;;;6.44;100.00;101246.19;5132259;27;20491;-68
2021/10/10 04:40:23;;;;;;;16.83;9.07;;;;;;;6.49;100.00;101244.28;5132709;28;20050;-68
2021/10/10 04:42:51;;;;;;;17.30;9.85;;;;;;;6.56;100.00;101242.31;5132057;28;20035;-68
2021/10/10 04:45:21;;;;;;;20.02;9.75;;;;;;;6.39;100.00;101248.13;5132405;28;20039;-67
2021/10/10 04:47:49;;;;;;;18.45;9.48;;;;;;;6.42;100.00;101225.94;5132299;28;20063;-68
2021/10/10 04:50:18;;;;;;;17.10;9.85;;;;;;;6.37;100.00;101235.78;5132380;27;20458;-67
2021/10/10 04:52:46;;;;;;;22.50;10.07;;;;;;;6.26;100.00;101236.94;5132282;28;20046;-67
2021/10/10 04:55:14;;;;;;;19.92;9.68;;;;;;;6.35;100.00;101240.28;5132295;27;20102;-67
2021/10/10 04:57:42;;;;;;;24.27;10.25;;;;;;;6.12;100.00;101241.75;5132283;27;20047;-67
2021/10/10 05:00:12;;;;;;;17.23;9.68;;;;;;;6.21;100.00;101238.88;5132151;27;20501;-67
2021/10/10 05:02:41;;;;;;;22.10;9.80;;;;;;;6.21;100.00;101238.88;5132106;28;20564;-67
2021/10/10 05:05:11;;;;;;;24.42;10.90;;;;;;;6.17;100.00;101238.97;5130769;28;20074;-68
2021/10/10 05:07:39;;;;;;;18.40;10.35;;;;;;;6.15;100.00;101233.72;5132175;27;20529;-68
2021/10/10 05:10:08;;;;;;;19.00;10.23;;;;;;;6.22;100.00;101237.09;5132563;28;20088;-68
2021/10/10 05:12:38;;;;;;;22.75;9.90;;;;;;;6.21;100.00;101241.53;5132446;28;20051;-68
2021/10/10 05:15:08;;;;;;;18.25;9.60;;;;;;;6.40;100.00;101238.38;5131912;28;20492;-68
2021/10/10 05:17:36;;;;;;;18.85;9.38;;;;;;;6.23;100.00;101239.69;5132195;28;20403;-68
2021/10/10 05:20:10;;;;;;;20.55;10.20;;;;;;;6.15;100.00;101244.31;5135054;27;20047;-68
2021/10/10 05:22:38;;;;;;;19.17;9.40;;;;;;;6.24;100.00;101244.06;5136140;27;20114;-68
2021/10/10 05:25:07;;;;;;;18.27;10.75;;;;;;;6.31;100.00;101245.66;5135863;27;20425;-68
2021/10/10 05:27:36;;;;;;;19.52;9.35;;;;;;;6.17;100.00;101242.50;5135655;27;20557;-68
2021/10/10 05:30:06;;;;;;;18.85;9.55;;;;;;;6.10;100.00;101245.38;5134229;27;20157;-68
2021/10/10 05:32:34;;;;;;;19.88;10.02;;;;;;;6.25;100.00;101251.13;5135493;27;20468;-68
2021/10/10 05:35:02;;;;;;;19.63;10.05;;;;;;;6.34;100.00;101257.09;5135671;27;20480;-68
2021/10/10 05:37:32;;;;;;;21.77;10.02;;;;;;;6.24;100.00;101251.16;5135751;27;20396;-68
2021/10/10 05:40:00;;;;;;;17.55;9.95;;;;;;;6.39;100.00;101253.41;5135148;27;20108;-68
2021/10/10 05:42:28;;;;;;;19.23;9.75;;;;;;;6.38;100.00;101256.09;5135572;27;20043;-67
2021/10/10 05:44:57;;;;;;;19.58;10.73;;;;;;;6.31;100.00;101261.56;5135067;27;20453;-67
2021/10/10 05:47:25;;;;;;;19.83;10.52;;;;;;;6.14;100.00;101261.13;5135412;27;20035;-68
2021/10/10 05:49:55;;;;;;;19.10;10.23;;;;;;;6.27;100.00;101251.97;5135135;27;20047;-68
2021/10/10 05:52:25;;;;;;;23.65;10.52;;;;;;;6.16;100.00;101251.34;5135113;27;20062;-68
2021/10/10 05:54:55;;;;;;;19.48;9.95;;;;;;;6.24;100.00;101259.97;5135279;27;20054;-68
2021/10/10 05:57:27;;;;;;;20.58;9.70;;;;;;;6.22;100.00;101267.09;5135154;27;20444;-68
2021/10/10 06:00:02;;;;;;;17.97;10.10;;;;;;;6.27;100.00;101259.91;5135078;27;20498;-67
2021/10/10 06:02:30;;;;;;;22.48;10.30;;;;;;;6.22;100.00;101267.09;5134954;27;20057;-67
2021/10/10 06:04:59;;;;;;;20.42;9.40;;;;;;;6.11;100.00;101257.69;5134824;27;20125;-67
2021/10/10 06:07:27;;;;;;;22.20;10.23;;;;;;;6.18;100.00;101257.50;5135311;27;20050;-67
2021/10/10 06:09:57;;;;;;;18.95;10.38;;;;;;;6.21;100.00;101260.06;5134459;27;20580;-68
2021/10/10 06:12:25;;;;;;;21.00;10.52;;;;;;;6.15;100.00;101259.34;5135041;27;20086;-67
2021/10/10 06:14:53;;;;;;;19.73;10.63;;;;;;;6.00;100.00;101261.50;5134937;27;20426;-71
2021/10/10 06:17:22;;;;;;;19.02;10.48;;;;;;;6.17;100.00;101263.69;5135061;27;20035;-67
2021/10/10 06:19:50;;;;;;;20.92;10.70;;;;;;;6.14;100.00;101258.47;5134841;27;20039;-67
2021/10/10 06:22:19;;;;;;;21.63;10.35;;;;;;;6.18;100.00;101254.84;5134362;27;20126;-67
2021/10/10 06:24:47;;;;;;;21.73;10.80;;;;;;;6.15;100.00;101254.91;5134369;27;20479;-67
2021/10/10 06:27:17;;;;;;;21.33;9.88;;;;;;;6.05;100.00;101253.41;5134524;27;20043;-67
2021/10/10 06:29:46;;;;;;;19.80;10.35;;;;;;;6.12;100.00;101254.13;5134129;27;20050;-67
2021/10/10 06:32:14;;;;;;;21.27;9.85;;;;;;;6.12;100.00;101249.72;5133757;27;20514;-67
2021/10/10 06:34:43;;;;;;;19.00;9.85;;;;;;;6.15;100.00;101257.56;5134676;27;20047;-67
2021/10/10 06:37:11;;;;;;;20.98;10.88;;;;;;;5.99;100.00;101258.88;5134044;27;20039;-67
2021/10/10 06:39:39;;;;;;;22.70;11.18;;;;;;;6.11;100.00;101258.56;5134299;27;20043;-67
2021/10/10 06:42:08;;;;;;;20.23;10.40;;;;;;;6.18;100.00;101260.16;5134297;27;20050;-67
2021/10/10 06:44:38;;;;;;;18.38;9.73;;;;;;;6.16;100.00;101246.06;5134088;27;20047;-67
2021/10/10 06:47:06;;;;;;;18.50;10.23;;;;;;;6.19;100.00;101261.03;5133670;27;20042;-67
2021/10/10 06:49:34;;;;;;;26.02;11.20;;;;;;;6.12;100.00;101260.31;5134037;27;20510;-67
2021/10/10 06:52:03;;;;;;;22.30;10.65;;;;;;;6.13;100.00;101256.75;5133780;27;20047;-67
2021/10/10 06:54:31;;;;;;;22.27;11.07;;;;;;;6.11;100.00;101255.06;5134028;27;20062;-67
2021/10/10 06:57:01;;;;;;;20.95;11.32;;;;;;;6.15;100.00;101260.22;5133997;27;20092;-68
2021/10/10 06:59:30;;;;;;;24.40;10.60;;;;;;;6.25;100.00;101252.91;5133506;27;20050;-68
2021/10/10 07:02:03;;;;;;;21.30;11.15;;;;;;;6.31;100.00;101256.25;5133637;27;20043;-66
2021/10/10 07:04:31;;;;;;;20.70;10.70;;;;;;;6.41;100.00;101256.00;5134194;27;20035;-67
2021/10/10 07:07:01;;;;;;;18.95;10.43;;;;;;;6.37;100.00;101259.63;5133824;27;20051;-68
2021/10/10 07:09:30;;;;;;;24.20;11.77;;;;;;;6.59;100.00;101260.81;5134012;27;20049;-68
2021/10/10 07:11:59;;;;;;;21.73;10.63;;;;;;;6.49;100.00;101254.91;5133711;27;20502;-68
2021/10/10 07:14:27;;;;;;;24.30;11.00;;;;;;;6.58;100.00;101251.13;5133691;27;20047;-68
2021/10/10 07:16:57;;;;;;;23.42;10.85;;;;;;;6.60;100.00;101257.25;5133740;27;20047;-68
2021/10/10 07:19:34;;;;;;;20.02;10.77;;;;;;;6.68;100.00;101255.25;5133500;27;20039;-68
2021/10/10 07:22:13;;;;;;;20.98;11.30;;;;;;;6.71;100.00;101256.94;5133385;27;20047;-68
2021/10/10 07:27:30;;;;;;;19.40;10.30;;;;;;;6.75;100.00;101256.81;5133357;27;20472;-68
2021/10/10 07:29:58;;;;;;;29.15;11.18;;;;;;;6.80;100.00;101256.69;5133335;27;20050;-68
2021/10/10 07:32:26;;;;;;;21.10;10.27;;;;;;;7.01;100.00;101253.41;5133105;27;20055;-68
2021/10/10 07:34:56;;;;;;;23.13;10.35;;;;;;;7.03;100.00;101254.22;5131889;27;20051;-68
2021/10/10 07:37:24;;;;;;;19.90;10.25;;;;;;;7.07;100.00;101257.66;5133029;27;20092;-68
2021/10/10 07:39:53;;;;;;;22.05;11.07;;;;;;;6.84;100.00;101259.19;5133145;27;20043;-67
2021/10/10 07:42:21;;;;;;;19.23;10.10;;;;;;;6.87;100.00;101260.91;5132623;27;20047;-68
2021/10/10 07:44:52;;;;;;;22.95;11.43;;;;;;;6.88;100.00;101257.34;5133235;27;20035;-68
2021/10/10 07:47:35;;;;;;;21.83;10.50;;;;;;;7.13;100.00;101250.38;5133028;27;20050;-68
2021/10/10 07:50:06;;;;;;;20.27;10.45;;;;;;;7.07;100.00;101257.66;5133056;27;20063;-68
2021/10/10 07:52:35;;;;;;;21.75;11.23;;;;;;;7.10;100.00;101263.75;5133544;27;20197;-68
2021/10/10 07:55:06;;;;;;;24.98;11.40;;;;;;;6.99;100.00;101264.97;5132743;27;20043;-68
2021/10/10 07:57:34;;;;;;;24.42;10.60;;;;;;;7.23;100.00;101264.22;5133151;27;20050;-68
2021/10/10 08:00:03;;;;;;;21.38;11.30;;;;;;;7.40;100.00;101261.06;5132886;27;20046;-68
2021/10/10 08:02:32;;;;;;;25.38;11.38;;;;;;;7.38;100.00;101266.44;5132772;27;20099;-68
2021/10/10 08:05:01;;;;;;;19.38;10.32;;;;;;;7.45;100.00;101260.03;5132678;27;20039;-68
2021/10/10 08:07:31;;;;;;;23.48;11.82;;;;;;;7.50;100.00;101257.22;5132738;27;20143;-67
2021/10/10 08:09:59;;;;;;;20.75;11.25;;;;;;;7.44;100.00;101260.94;5132553;27;20047;-67
2021/10/10 08:12:27;;;;;;;20.85;11.38;;;;;;;7.41;100.00;101263.69;5132141;27;20047;-67
2021/10/10 08:14:55;;;;;;;18.65;11.18;;;;;;;7.51;100.00;101263.38;5132644;27;20166;-67
2021/10/10 08:17:23;;;;;;;23.17;11.48;;;;;;;7.41;100.00;101268.13;5132298;27;20047;-67
2021/10/10 08:19:52;;;;;;;24.60;12.13;;;;;;;7.39;100.00;101248.72;5132299;27;20498;-67
2021/10/10 08:22:20;;;;;;;21.33;11.05;;;;;;;7.49;100.00;101254.63;5132243;27;20039;-67
2021/10/10 08:24:50;;;;;;;22.38;12.80;;;;;;;7.64;100.00;101248.81;5132229;27;20506;-67
2021/10/10 08:27:19;;;;;;;26.45;11.85;;;;;;;7.97;100.00;101252.16;5131986;28;20054;-67
2021/10/10 08:29:47;;;;;;;23.55;11.18;;;;;;;8.22;100.00;101247.75;5132188;27;20044;-67
2021/10/10 08:32:15;;;;;;;21.20;10.93;;;;;;;8.23;100.00;101245.97;5132293;28;20059;-67
2021/10/10 08:34:44;;;;;;;21.30;11.85;;;;;;;8.28;100.00;101238.66;5132379;28;20108;-67
2021/10/10 08:37:12;;;;;;;19.63;10.32;;;;;;;8.32;100.00;101240.31;5132151;28;20046;-67
2021/10/10 08:39:41;;;;;;;20.65;11.27;;;;;;;8.42;100.00;101239.09;5132369;27;20035;-67
2021/10/10 08:42:12;;;;;;;21.80;11.27;;;;;;;8.48;100.00;101238.88;5132099;28;20039;-68
2021/10/10 08:44:44;;;;;;;20.27;10.88;;;;;;;8.45;100.00;101238.97;5132420;27;20088;-67
2021/10/10 08:47:16;;;;;;;21.13;11.03;;;;;;;8.43;100.00;101243.50;5132241;28;20039;-67
2021/10/10 08:49:46;;;;;;;22.75;11.20;;;;;;;8.47;100.00;101234.47;5132533;28;20047;-67
2021/10/10 08:52:16;;;;;;;21.27;11.27;;;;;;;8.63;100.00;101228.63;5132097;28;20146;-67
2021/10/10 08:54:50;;;;;;;23.27;11.40;;;;;;;8.54;100.00;101222.69;5134712;27;20048;-67
2021/10/10 08:57:20;;;;;;;23.33;12.07;;;;;;;8.76;100.00;101227.22;5136209;27;20043;-67
2021/10/10 08:59:53;;;;;;;18.50;10.55;;;;;;;8.63;100.00;101226.81;5136258;27;20039;-67
2021/10/10 09:02:25;;;;;;;20.45;11.25;;;;;;;8.69;100.00;101220.41;5136076;27;20053;-67
2021/10/10 09:04:53;;;;;;;19.38;11.25;;;;;;;8.77;100.00;101223.63;5136169;27;20039;-67
2021/10/10 09:07:21;;;;;;;24.08;12.27;;;;;;;8.78;100.00;101230.69;5135863;27;20070;-67
2021/10/10 09:09:50;;;;;;;23.90;11.50;;;;;;;9.12;100.00;101225.84;5135987;27;20120;-68
2021/10/10 09:12:18;;;;;;;24.85;12.52;;;;;;;9.37;100.00;101224.88;5135639;27;20051;-67
2021/10/10 09:14:52;;;;;;;23.73;11.50;;;;;;;9.41;100.00;101226.50;5135864;27;20127;-67
2021/10/10 09:17:22;;;;;;;18.92;10.60;;;;;;;9.08;100.00;101223.38;5135681;27;20035;-67
2021/10/10 09:19:52;;;;;;;20.63;11.63;;;;;;;9.01;100.00;101216.53;5135644;27;20046;-67
2021/10/10 09:22:21;;;;;;;24.70;12.30;;;;;;;8.98;100.00;101217.53;5135637;27;20047;-67
2021/10/10 09:24:49;;;;;;;23.33;11.60;;;;;;;9.07;100.00;101211.84;5135691;27;20086;-67
2021/10/10 09:27:19;;;;;;;21.58;10.52;;;;;;;9.22;100.00;101204.19;5135431;27;20047;-68
2021/10/10 09:29:53;;;;;;;26.08;12.40;;;;;;;9.29;100.00;101203.88;5135629;27;20081;-68
2021/10/10 09:32:26;;;;;;;21.58;11.75;;;;;;;9.34;100.00;101209.00;5135010;27;20043;-68
2021/10/10 09:34:55;;;;;;;20.58;10.85;;;;;;;9.42;100.00;101204.25;5135604;27;20051;-67
2021/10/10 09:37:37;;;;;;;18.63;11.50;;;;;;;9.33;100.00;101208.16;5135185;27;20043;-68
2021/10/10 09:40:10;;;;;;;23.77;11.02;;;;;;;9.35;100.00;101210.75;5135648;27;20182;-67
2021/10/10 09:42:42;;;;;;;21.95;11.43;;;;;;;9.44;100.00;101211.25;5135409;27;20039;-67
2021/10/10 09:45:17;;;;;;;21.23;11.52;;;;;;;9.55;100.00;101208.13;5135428;27;20450;-67
2021/10/10 09:47:52;;;;;;;20.92;10.93;;;;;;;9.78;100.00;101209.88;5135419;27;20096;-67
2021/10/10 09:50:20;;;;;;;20.52;11.73;;;;;;;9.90;100.00;101208.50;5135062;27;20100;-67
2021/10/10 09:53:01;;;;;;;22.45;12.45;;;;;;;9.94;99.31;101195.00;5135133;27;20499;-67
2021/10/10 09:55:30;;;;;;;23.10;11.82;;;;;;;9.93;99.80;101203.03;5134809;27;20103;-67
2021/10/10 09:57:58;;;;;;;20.92;11.93;;;;;;;9.98;98.89;101211.72;5135375;27;20051;-67
2021/10/10 10:00:30;;;;;;;23.15;11.32;;;;;;;9.96;98.92;101205.56;5134678;27;20088;-67
2021/10/10 10:03:06;;;;;;;23.10;11.20;;;;;;;9.97;98.43;101215.31;5135236;27;20051;-68
2021/10/10 10:05:35;;;;;;;19.75;10.85;;;;;;;10.21;100.00;101214.25;5134203;27;20263;-68
2021/10/10 10:08:05;;;;;;;25.75;11.73;;;;;;;10.34;99.98;101213.75;5135107;27;20376;-68
2021/10/10 10:10:35;;;;;;;22.73;11.52;;;;;;;10.49;97.00;101210.41;5134760;27;20459;-68
2021/10/10 10:13:04;;;;;;;22.20;12.27;;;;;;;10.47;97.51;101205.13;5134748;27;20039;-67
2021/10/10 10:15:35;;;;;;;23.05;11.73;;;;;;;10.44;97.22;101202.63;5134434;27;20377;-67
2021/10/10 10:18:04;;;;;;;24.42;12.05;;;;;;;10.39;97.50;101206.41;5134632;27;20051;-68
2021/10/10 10:20:33;;;;;;;24.23;12.07;;;;;;;10.36;99.02;101195.88;5134606;27;20077;-68
2021/10/10 10:23:01;;;;;;;18.00;11.05;;;;;;;10.37;98.83;101200.28;5133330;27;20096;-67
2021/10/10 10:25:31;;;;;;;22.45;11.55;;;;;;;10.52;96.01;101203.13;5134535;27;20126;-68
2021/10/10 10:28:00;;;;;;;21.77;12.18;;;;;;;10.53;96.55;101204.00;5134857;27;20035;-68
2021/10/10 10:30:30;;;;;;;18.95;11.55;;;;;;;10.56;95.36;101204.72;5134183;27;20053;-68
2021/10/10 10:33:00;;;;;;;23.50;11.63;;;;;;;10.43;96.99;101213.34;5134840;27;20062;-68
2021/10/10 10:35:30;;;;;;;23.75;12.43;;;;;;;10.53;97.70;101199.53;5134517;27;20160;-68
2021/10/10 10:37:58;;;;;;;22.92;11.68;;;;;;;10.44;96.37;101201.75;5134588;27;20047;-67
2021/10/10 10:40:40;;;;;;;20.77;12.07;;;;;;;10.23;97.88;101196.44;5134065;27;20050;-68
2021/10/10 10:43:13;;;;;;;21.92;10.63;;;;;;;10.57;96.97;101193.13;5134017;27;20081;-68
2021/10/10 10:45:45;;;;;;;20.80;11.35;;;;;;;10.65;94.84;101190.09;5133824;27;20039;-68
2021/10/10 10:48:37;;;;;;;23.58;11.10;;;;;;;10.62;93.31;101187.59;5133397;27;20118;-67
2021/10/10 10:51:22;;;;;;;22.75;11.35;;;;;;;10.74;94.62;101181.69;5134009;27;20039;-68
2021/10/10 10:53:51;;;;;;;23.15;11.75;;;;;;;10.81;95.63;101183.13;5134327;27;20043;-68
2021/10/10 10:56:30;;;;;;;22.42;11.63;;;;;;;10.76;92.83;101174.47;5133521;27;20063;-67
2021/10/10 10:58:59;;;;;;;23.45;12.60;;;;;;;10.79;92.67;101184.13;5134177;27;20063;-67
2021/10/10 11:01:48;;;;;;;23.75;11.90;;;;;;;10.97;94.03;101177.06;5133786;27;20043;-67
2021/10/10 11:04:27;;;;;;;21.27;11.38;;;;;;;11.21;91.33;101180.38;5133686;27;20138;-67
2021/10/10 11:06:58;;;;;;;21.48;11.75;;;;;;;11.28;91.27;101182.66;5134012;27;20036;-67
2021/10/10 11:09:27;;;;;;;19.63;11.05;;;;;;;11.31;90.49;101174.53;5132380;27;20138;-67
2021/10/10 11:11:56;;;;;;;23.15;11.98;;;;;;;11.21;88.92;101165.22;5133533;27;20047;-68
2021/10/10 11:14:29;;;;;;;20.60;11.38;;;;;;;11.36;89.70;101156.44;5133175;27;20134;-68
2021/10/10 11:17:08;;;;;;;24.15;12.25;;;;;;;11.51;91.20;101156.66;5132996;27;20047;-69
2021/10/10 11:19:43;;;;;;;22.25;10.60;;;;;;;11.53;89.82;101154.75;5133609;27;20172;-67
2021/10/10 11:22:13;;;;;;;23.55;10.95;;;;;;;11.51;85.12;101156.66;5133626;27;20039;-68
2021/10/10 11:24:47;;;;;;;24.75;11.15;;;;;;;11.56;84.81;101146.59;5133222;27;20043;-68
2021/10/10 11:27:18;;;;;;;18.27;11.52;;;;;;;11.53;84.75;101138.72;5133453;27;20055;-68
2021/10/10 11:29:50;;;;;;;20.58;11.70;;;;;;;11.69;87.19;101142.38;5133239;27;20042;-69